Time;durP1;ratioP1;P1;durP2;ratioP2;P2;SDS_P1;SDS_P2;PMS_P1;PMS_P2;Temp;Humidity;BMP_temperature;BMP_pressure;BME280_temperature;BME280_humidity;BME280_pressure;Samples;Min_cycle;Max_cycle;Signal;HPM_P1;HPM_P2
2022/01/04 00:00:18;;;;;;;2.47;2.27;;;9.60;99.90;;;;;;476531;249;28467;-70
2022/01/04 00:02:20;;;;;;;2.83;2.63;;;9.60;99.90;;;;;;476518;249;27911;-70
2022/01/04 00:04:21;;;;;;;2.80;2.60;;;9.60;99.90;;;;;;476534;249;28487;-70
2022/01/04 00:06:22;;;;;;;2.93;2.60;;;9.60;99.90;;;;;;476542;249;28351;-70
2022/01/04 00:08:26;;;;;;;2.50;2.07;;;9.60;99.90;;;;;;476553;249;28398;-70
2022/01/04 00:10:26;;;;;;;2.20;2.10;;;9.60;99.90;;;;;;476477;249;27877;-70
2022/01/04 00:14:45;;;;;;;3.70;2.53;;;9.60;99.90;;;;;;476556;249;28603;-70
2022/01/04 00:16:47;;;;;;;2.70;2.50;;;9.60;99.90;;;;;;476550;249;28356;-70
2022/01/04 00:18:48;;;;;;;3.20;2.63;;;9.60;99.90;;;;;;476560;249;28455;-70
2022/01/04 00:20:49;;;;;;;2.60;2.37;;;9.60;99.90;;;;;;476559;249;27861;-70
2022/01/04 00:22:50;;;;;;;2.87;2.63;;;9.60;99.90;;;;;;476527;249;27864;-70
2022/01/04 00:24:52;;;;;;;2.57;2.37;;;9.60;99.90;;;;;;476550;249;27990;-70
2022/01/04 00:26:53;;;;;;;2.33;2.23;;;9.60;99.90;;;;;;476541;249;27886;-70
2022/01/04 00:28:54;;;;;;;2.60;2.40;;;9.60;99.90;;;;;;476568;249;27789;-70
2022/01/04 00:30:55;;;;;;;3.00;2.40;;;9.60;99.90;;;;;;476544;249;27960;-70
2022/01/04 00:32:57;;;;;;;4.70;2.70;;;9.60;99.90;;;;;;476548;249;27512;-70
2022/01/04 00:34:58;;;;;;;5.63;3.07;;;9.60;99.90;;;;;;476555;249;27907;-70
2022/01/04 00:36:59;;;;;;;2.80;2.60;;;9.60;99.90;;;;;;476560;249;27740;-70
2022/01/04 00:39:00;;;;;;;3.03;2.83;;;9.60;99.90;;;;;;476570;249;27982;-70
2022/01/04 00:41:02;;;;;;;5.10;2.93;;;9.60;99.90;;;;;;476552;249;27879;-70
2022/01/04 00:43:03;;;;;;;3.23;2.90;;;9.60;99.90;;;;;;476552;249;27924;-70
2022/01/04 00:45:05;;;;;;;3.83;2.50;;;9.60;99.90;;;;;;476582;249;28234;-70
2022/01/04 00:47:08;;;;;;;2.70;2.50;;;9.60;99.90;;;;;;476552;249;28318;-70
2022/01/04 00:49:11;;;;;;;5.20;3.40;;;9.60;99.90;;;;;;476478;249;28219;-70
2022/01/04 00:51:13;;;;;;;2.73;2.53;;;9.60;99.90;;;;;;476558;249;28479;-70
2022/01/04 00:53:14;;;;;;;3.13;2.83;;;9.60;99.90;;;;;;476554;249;27649;-70
2022/01/04 00:55:15;;;;;;;2.67;2.47;;;9.50;99.90;;;;;;476546;249;27865;-70
2022/01/04 00:57:16;;;;;;;3.90;2.60;;;9.50;99.90;;;;;;476569;249;27515;-70
2022/01/04 00:59:17;;;;;;;4.70;2.67;;;9.60;99.90;;;;;;476558;249;27932;-70
2022/01/04 01:01:19;;;;;;;5.33;3.40;;;9.50;99.90;;;;;;476539;249;27664;-70
2022/01/04 01:03:20;;;;;;;4.00;3.60;;;9.50;99.90;;;;;;476544;249;27636;-70
2022/01/04 01:05:24;;;;;;;3.07;2.87;;;9.50;99.90;;;;;;476569;249;28052;-70
2022/01/04 01:07:22;;;;;;;3.33;3.03;;;9.50;99.90;;;;;;476466;249;27855;-70
2022/01/04 01:09:28;;;;;;;3.20;2.90;;;9.50;99.90;;;;;;476581;249;27918;-70
2022/01/04 01:11:25;;;;;;;3.63;3.33;;;9.50;99.90;;;;;;476380;249;28006;-70
2022/01/04 01:13:26;;;;;;;3.27;2.73;;;9.50;99.90;;;;;;476554;249;27615;-70
2022/01/04 01:15:27;;;;;;;3.47;2.97;;;9.50;99.90;;;;;;476525;249;27831;-70
2022/01/04 01:17:29;;;;;;;3.70;3.00;;;9.50;99.90;;;;;;476560;249;27633;-70
2022/01/04 01:19:30;;;;;;;3.27;3.03;;;9.50;99.90;;;;;;476557;249;27911;-70
2022/01/04 01:21:31;;;;;;;2.87;2.63;;;9.50;99.90;;;;;;476550;249;28094;-70
2022/01/04 01:23:32;;;;;;;3.67;2.93;;;9.50;99.90;;;;;;476549;249;28212;-70
2022/01/04 01:25:34;;;;;;;3.03;2.73;;;9.50;99.90;;;;;;476556;249;28311;-70
2022/01/04 01:27:35;;;;;;;4.50;3.00;;;9.50;99.90;;;;;;476548;249;28208;-70
2022/01/04 01:29:36;;;;;;;3.37;3.07;;;9.50;99.90;;;;;;476521;249;28322;-70
2022/01/04 01:31:37;;;;;;;2.87;2.57;;;9.50;99.90;;;;;;476545;249;27944;-70
2022/01/04 01:33:39;;;;;;;3.27;2.90;;;9.50;99.90;;;;;;476556;249;27882;-70
2022/01/04 01:35:40;;;;;;;2.57;2.30;;;9.50;99.90;;;;;;476531;249;28152;-70
2022/01/04 01:37:41;;;;;;;6.00;2.70;;;9.50;99.90;;;;;;476541;249;27835;-70
2022/01/04 01:39:42;;;;;;;4.53;3.00;;;9.50;99.90;;;;;;476539;249;27913;-70
2022/01/04 01:41:43;;;;;;;4.90;3.30;;;9.40;99.90;;;;;;476544;249;27998;-70
2022/01/04 01:43:47;;;;;;;3.33;3.00;;;9.40;99.90;;;;;;476556;249;27826;-70
2022/01/04 01:45:46;;;;;;;3.53;3.20;;;9.40;99.90;;;;;;476461;249;27801;-70
2022/01/04 01:47:47;;;;;;;3.33;3.03;;;9.50;99.90;;;;;;476534;249;27934;-70
2022/01/04 01:49:49;;;;;;;4.33;3.57;;;9.50;99.90;;;;;;476543;249;27882;-70
2022/01/04 01:51:50;;;;;;;3.63;3.00;;;9.40;99.90;;;;;;476527;249;28359;-70
2022/01/04 01:53:51;;;;;;;3.83;3.43;;;9.40;99.90;;;;;;476545;249;27982;-70
2022/01/04 01:55:52;;;;;;;3.50;3.20;;;9.40;99.90;;;;;;476552;249;28089;-70
2022/01/04 01:57:53;;;;;;;4.20;3.23;;;9.40;99.90;;;;;;476545;249;27898;-70
2022/01/04 01:59:55;;;;;;;3.60;3.30;;;9.30;99.90;;;;;;476528;249;28391;-70
2022/01/04 02:01:56;;;;;;;3.77;3.37;;;9.40;99.90;;;;;;476557;249;28700;-70
2022/01/04 02:03:57;;;;;;;4.47;3.57;;;9.40;99.90;;;;;;476550;249;28460;-70
2022/01/04 02:05:58;;;;;;;3.93;3.13;;;9.40;99.90;;;;;;476550;249;28330;-70
2022/01/04 02:08:00;;;;;;;4.90;3.10;;;9.40;99.90;;;;;;476541;249;28430;-70
2022/01/04 02:10:04;;;;;;;4.53;3.13;;;9.40;99.90;;;;;;476537;249;28202;-70
2022/01/04 02:12:05;;;;;;;3.33;2.87;;;9.30;99.90;;;;;;476534;249;28006;-70
2022/01/04 02:14:06;;;;;;;3.60;3.30;;;9.30;99.90;;;;;;476537;249;27971;-70
2022/01/04 02:16:08;;;;;;;3.57;3.23;;;9.30;99.90;;;;;;476546;249;28204;-70
2022/01/04 02:18:09;;;;;;;7.33;2.90;;;9.30;99.90;;;;;;476551;249;28565;-70
2022/01/04 02:20:10;;;;;;;3.77;2.97;;;9.30;99.90;;;;;;476544;249;29123;-70
2022/01/04 02:22:11;;;;;;;2.83;2.60;;;9.30;99.90;;;;;;476551;249;28340;-70
2022/01/04 02:24:13;;;;;;;2.47;2.27;;;9.30;99.90;;;;;;476542;249;28602;-70
2022/01/04 02:26:14;;;;;;;3.40;2.87;;;9.30;99.90;;;;;;476541;249;27859;-70
2022/01/04 02:28:18;;;;;;;3.70;3.00;;;9.30;99.90;;;;;;476529;249;27543;-70
2022/01/04 02:30:16;;;;;;;3.13;2.90;;;9.30;99.90;;;;;;476471;249;27978;-70
2022/01/04 02:32:18;;;;;;;3.80;2.80;;;9.30;99.90;;;;;;476549;249;28048;-70
2022/01/04 02:34:19;;;;;;;3.07;2.87;;;9.30;99.90;;;;;;476558;249;27780;-70
2022/01/04 02:36:20;;;;;;;5.83;2.90;;;9.30;99.90;;;;;;476534;249;27887;-70
2022/01/04 02:38:21;;;;;;;4.57;3.50;;;9.30;99.90;;;;;;476519;249;27985;-70
2022/01/04 02:40:23;;;;;;;3.73;3.00;;;9.30;99.90;;;;;;476530;249;27984;-70
2022/01/04 02:42:24;;;;;;;4.53;2.90;;;9.20;99.90;;;;;;476521;249;27954;-70
2022/01/04 02:44:25;;;;;;;3.47;2.93;;;9.20;99.90;;;;;;476525;249;27950;-70
2022/01/04 02:46:26;;;;;;;3.27;2.97;;;9.20;99.90;;;;;;476534;249;27822;-70
2022/01/04 02:48:28;;;;;;;4.50;3.80;;;9.20;99.90;;;;;;476532;249;28047;-70
2022/01/04 02:50:29;;;;;;;2.87;2.53;;;9.20;99.90;;;;;;476498;249;27970;-70
2022/01/04 02:52:32;;;;;;;3.30;2.90;;;9.20;99.90;;;;;;476524;249;27883;-70
2022/01/04 02:54:31;;;;;;;2.83;2.47;;;9.20;99.90;;;;;;476488;249;28464;-70
2022/01/04 02:56:33;;;;;;;3.20;2.60;;;9.20;99.90;;;;;;476518;249;28237;-70
2022/01/04 02:58:34;;;;;;;4.70;3.00;;;9.20;99.90;;;;;;476534;249;28354;-70
2022/01/04 03:00:35;;;;;;;2.90;2.70;;;9.20;99.90;;;;;;476529;249;29178;-70
2022/01/04 03:02:36;;;;;;;3.83;3.43;;;9.20;99.90;;;;;;476562;249;27989;-70
2022/01/04 03:04:38;;;;;;;4.20;3.30;;;9.20;99.90;;;;;;476537;249;28327;-70
2022/01/04 03:06:39;;;;;;;3.30;3.00;;;9.20;99.90;;;;;;476535;249;27959;-70
2022/01/04 03:08:40;;;;;;;4.77;3.10;;;9.20;99.90;;;;;;476545;249;27985;-70
2022/01/04 03:10:41;;;;;;;4.27;3.20;;;9.20;99.90;;;;;;476528;249;27988;-70
2022/01/04 03:12:44;;;;;;;4.43;2.90;;;9.20;99.90;;;;;;476525;249;27883;-70
2022/01/04 03:14:44;;;;;;;3.33;2.77;;;9.20;99.90;;;;;;476500;249;28053;-70
2022/01/04 03:16:46;;;;;;;3.30;3.00;;;9.20;99.90;;;;;;476556;249;27518;-70
2022/01/04 03:19:09;;;;;;;4.23;2.93;;;9.20;99.90;;;;;;476557;249;27926;-70
2022/01/04 03:20:48;;;;;;;4.70;3.10;;;9.20;99.90;;;;;;475839;249;28126;-70
2022/01/04 03:22:49;;;;;;;3.73;2.63;;;9.20;99.90;;;;;;476559;249;27912;-70
2022/01/04 03:24:50;;;;;;;4.13;2.93;;;9.20;99.90;;;;;;476542;249;27952;-70
2022/01/04 03:26:51;;;;;;;4.13;2.87;;;9.10;99.90;;;;;;476535;249;27514;-70
2022/01/04 03:28:53;;;;;;;5.53;2.70;;;9.20;99.90;;;;;;476542;249;27912;-70
2022/01/04 03:30:54;;;;;;;2.53;2.33;;;9.10;99.90;;;;;;476527;249;27880;-70
2022/01/04 03:32:55;;;;;;;3.23;2.40;;;9.10;99.90;;;;;;476543;249;28497;-70
2022/01/04 03:34:56;;;;;;;2.77;2.57;;;9.20;99.90;;;;;;476557;249;28155;-70
2022/01/04 03:36:58;;;;;;;2.23;2.10;;;9.10;99.90;;;;;;476570;249;28318;-70
2022/01/04 03:38:59;;;;;;;2.97;2.60;;;9.20;99.90;;;;;;476548;249;28249;-70
2022/01/04 03:41:00;;;;;;;4.03;2.53;;;9.10;99.90;;;;;;476549;249;28213;-70
2022/01/04 03:43:01;;;;;;;3.20;2.60;;;9.10;99.90;;;;;;476533;249;27891;-70
2022/01/04 03:45:03;;;;;;;2.97;2.53;;;9.20;99.90;;;;;;476542;249;27989;-70
2022/01/04 03:47:04;;;;;;;3.30;2.47;;;9.10;99.90;;;;;;476536;249;27863;-70
2022/01/04 03:49:05;;;;;;;2.50;2.10;;;9.20;99.90;;;;;;476544;249;28016;-70
2022/01/04 03:51:06;;;;;;;2.27;2.17;;;9.20;99.90;;;;;;476533;249;27898;-70
2022/01/04 03:53:08;;;;;;;3.00;2.77;;;9.10;99.90;;;;;;476534;249;27409;-70
2022/01/04 03:55:09;;;;;;;2.77;2.57;;;9.10;99.90;;;;;;476527;249;28021;-70
2022/01/04 03:57:10;;;;;;;2.73;2.47;;;9.10;99.90;;;;;;476530;249;27889;-70
2022/01/04 03:59:11;;;;;;;2.30;2.17;;;9.10;99.90;;;;;;476517;249;27919;-70
2022/01/04 04:01:13;;;;;;;2.40;2.20;;;9.10;99.90;;;;;;476563;249;27919;-70
2022/01/04 04:03:14;;;;;;;2.97;2.10;;;9.10;99.90;;;;;;476525;249;27786;-70
2022/01/04 04:05:15;;;;;;;3.10;2.30;;;9.10;99.90;;;;;;476530;249;27440;-70
2022/01/04 04:07:16;;;;;;;2.17;2.07;;;9.10;99.90;;;;;;476531;249;27613;-70
2022/01/04 04:09:18;;;;;;;2.20;1.97;;;9.10;99.90;;;;;;476527;249;27931;-70
2022/01/04 04:11:19;;;;;;;2.00;1.90;;;9.10;99.90;;;;;;476531;249;28472;-70
2022/01/04 04:13:20;;;;;;;2.10;2.00;;;9.10;99.90;;;;;;476522;249;28184;-70
2022/01/04 04:15:21;;;;;;;2.03;1.80;;;9.10;99.90;;;;;;476509;249;28281;-70
2022/01/04 04:17:23;;;;;;;3.43;2.00;;;9.10;99.90;;;;;;476521;249;28346;-70
2022/01/04 04:19:24;;;;;;;2.23;2.00;;;9.10;99.90;;;;;;476532;249;28136;-70
2022/01/04 04:21:25;;;;;;;2.20;2.10;;;9.10;99.90;;;;;;476482;249;27836;-70
2022/01/04 04:23:26;;;;;;;2.10;2.00;;;9.10;99.90;;;;;;476436;249;27985;-70
2022/01/04 04:25:28;;;;;;;1.80;1.50;;;9.10;99.90;;;;;;476476;249;27943;-70
2022/01/04 04:27:29;;;;;;;1.77;1.67;;;9.20;99.90;;;;;;476462;249;28011;-70
2022/01/04 04:29:30;;;;;;;1.80;1.70;;;9.10;99.90;;;;;;476498;249;27874;-70
2022/01/04 04:31:31;;;;;;;1.50;1.40;;;9.10;99.90;;;;;;476488;249;27480;-70
2022/01/04 04:33:33;;;;;;;2.10;1.90;;;9.20;99.90;;;;;;476490;249;27852;-70
2022/01/04 04:35:34;;;;;;;1.50;1.40;;;9.10;99.90;;;;;;476497;249;27894;-69
2022/01/04 04:37:35;;;;;;;1.70;1.60;;;9.20;99.90;;;;;;476494;249;27893;-70
2022/01/04 04:39:36;;;;;;;2.43;2.03;;;9.20;99.90;;;;;;476524;249;27646;-70
2022/01/04 04:41:38;;;;;;;1.37;1.37;;;9.20;99.90;;;;;;476521;249;27958;-70
2022/01/04 04:43:39;;;;;;;2.43;2.30;;;9.20;99.90;;;;;;476568;249;28028;-70
2022/01/04 04:45:40;;;;;;;4.30;3.97;;;9.20;99.90;;;;;;476545;249;27764;-71
2022/01/04 04:47:41;;;;;;;3.80;3.60;;;9.20;99.90;;;;;;476537;249;27820;-70
2022/01/04 04:49:43;;;;;;;2.53;2.43;;;9.20;99.90;;;;;;476528;249;28425;-70
2022/01/04 04:51:44;;;;;;;2.70;2.30;;;9.20;99.90;;;;;;476545;249;27881;-70
2022/01/04 04:53:45;;;;;;;2.23;2.07;;;9.20;99.90;;;;;;476543;249;27952;-70
2022/01/04 04:55:46;;;;;;;2.00;1.90;;;9.20;99.90;;;;;;476547;249;28397;-69
2022/01/04 04:57:48;;;;;;;1.73;1.63;;;9.20;99.90;;;;;;476552;249;27960;-70
2022/01/04 04:59:49;;;;;;;1.80;1.70;;;9.20;99.90;;;;;;476573;249;28410;-70
2022/01/04 05:01:50;;;;;;;1.60;1.50;;;9.20;99.90;;;;;;476534;249;27714;-70
2022/01/04 05:03:52;;;;;;;1.60;1.50;;;9.20;99.90;;;;;;476542;249;27779;-70
2022/01/04 05:05:53;;;;;;;1.20;1.20;;;9.20;99.90;;;;;;476542;249;27656;-70
2022/01/04 05:07:54;;;;;;;1.43;1.33;;;9.20;99.90;;;;;;476551;249;27949;-70
2022/01/04 05:09:55;;;;;;;1.50;1.40;;;9.20;99.90;;;;;;476544;249;27602;-70
2022/01/04 05:11:56;;;;;;;1.97;1.50;;;9.20;99.90;;;;;;476572;249;27831;-70
2022/01/04 05:13:58;;;;;;;1.80;1.70;;;9.20;99.90;;;;;;476555;249;27812;-70
2022/01/04 05:15:59;;;;;;;1.20;1.20;;;9.30;99.90;;;;;;476564;249;28326;-70
2022/01/04 05:18:00;;;;;;;1.50;1.40;;;9.30;99.90;;;;;;476595;249;27739;-70
2022/01/04 05:20:01;;;;;;;1.30;1.30;;;9.30;99.90;;;;;;476575;249;27865;-70
2022/01/04 05:22:03;;;;;;;1.30;1.20;;;9.30;99.90;;;;;;476582;249;28041;-70
2022/01/04 05:24:04;;;;;;;1.10;1.10;;;9.30;99.90;;;;;;476561;249;27803;-70
2022/01/04 05:26:05;;;;;;;1.10;1.10;;;9.30;99.90;;;;;;476575;249;28543;-70
2022/01/04 05:28:06;;;;;;;1.30;1.30;;;9.30;99.90;;;;;;476548;249;28312;-70
2022/01/04 05:30:08;;;;;;;1.73;1.63;;;9.30;99.90;;;;;;476553;249;28326;-70
2022/01/04 05:32:09;;;;;;;1.67;1.67;;;9.30;99.90;;;;;;476560;249;28868;-70
2022/01/04 05:34:10;;;;;;;1.60;1.50;;;9.30;99.90;;;;;;476563;249;28572;-70
2022/01/04 05:36:11;;;;;;;1.90;1.80;;;9.30;99.90;;;;;;476547;249;28370;-70
2022/01/04 05:38:13;;;;;;;1.80;1.70;;;9.30;99.90;;;;;;476569;249;28486;-70
2022/01/04 05:40:14;;;;;;;1.90;1.47;;;9.30;99.90;;;;;;476568;249;27891;-70
2022/01/04 05:42:15;;;;;;;1.57;1.47;;;9.30;99.90;;;;;;476582;249;27867;-70
2022/01/04 05:44:16;;;;;;;1.50;1.50;;;9.30;99.90;;;;;;476559;249;27979;-70
2022/01/04 05:46:18;;;;;;;1.10;1.10;;;9.30;99.90;;;;;;476562;249;27921;-70
2022/01/04 05:48:20;;;;;;;1.10;1.00;;;9.30;99.90;;;;;;476564;249;27992;-70
2022/01/04 05:50:20;;;;;;;1.10;1.10;;;9.30;99.90;;;;;;476513;249;28054;-70
2022/01/04 05:52:21;;;;;;;1.40;1.30;;;9.40;99.90;;;;;;476542;249;27762;-70
2022/01/04 05:54:23;;;;;;;1.40;1.30;;;9.40;99.90;;;;;;476533;249;27644;-70
2022/01/04 05:56:24;;;;;;;2.73;1.73;;;9.40;99.90;;;;;;476578;249;27926;-69
2022/01/04 05:58:25;;;;;;;1.77;1.27;;;9.40;99.90;;;;;;476561;249;27758;-70
2022/01/04 06:00:26;;;;;;;1.50;1.40;;;9.40;99.90;;;;;;476530;249;28065;-69
2022/01/04 06:02:28;;;;;;;2.87;2.67;;;9.40;99.90;;;;;;476481;249;27873;-70
2022/01/04 06:04:29;;;;;;;11.17;10.30;;;9.40;99.90;;;;;;476418;249;28319;-70
2022/01/04 06:06:30;;;;;;;7.37;6.77;;;9.30;99.90;;;;;;476360;249;28240;-70
2022/01/04 06:08:35;;;;;;;4.93;4.63;;;9.40;99.90;;;;;;476342;249;28423;-69
2022/01/04 06:10:38;;;;;;;3.70;3.50;;;9.40;99.90;;;;;;476329;249;28153;-70
2022/01/04 06:14:50;;;;;;;3.53;3.03;;;9.40;99.90;;;;;;476540;247;27513;-70
2022/01/04 06:16:51;;;;;;;2.50;2.40;;;9.40;99.90;;;;;;476532;249;27962;-70
2022/01/04 06:18:53;;;;;;;2.20;2.10;;;9.30;99.90;;;;;;476550;249;28002;-70
2022/01/04 06:20:54;;;;;;;2.20;2.10;;;9.40;99.90;;;;;;476553;249;27833;-70
2022/01/04 06:22:55;;;;;;;1.90;1.80;;;9.40;99.90;;;;;;476524;249;27879;-70
2022/01/04 06:24:56;;;;;;;1.60;1.50;;;9.40;99.90;;;;;;476545;249;28463;-70
2022/01/04 06:26:58;;;;;;;1.50;1.40;;;9.40;99.90;;;;;;476541;247;28184;-69
2022/01/04 06:28:59;;;;;;;1.60;1.50;;;9.40;99.90;;;;;;476561;249;28037;-70
2022/01/04 06:31:00;;;;;;;1.40;1.40;;;9.40;99.90;;;;;;476528;249;28110;-70
2022/01/04 06:33:01;;;;;;;4.30;1.57;;;9.40;99.90;;;;;;476530;249;28535;-70
2022/01/04 06:35:03;;;;;;;1.87;1.77;;;9.40;99.90;;;;;;476530;249;28458;-70
2022/01/04 06:37:04;;;;;;;1.50;1.50;;;9.40;99.90;;;;;;476514;249;27523;-70
2022/01/04 06:39:05;;;;;;;3.00;2.80;;;9.40;99.90;;;;;;476334;249;27982;-69
2022/01/04 06:41:06;;;;;;;6.70;6.00;;;9.40;99.90;;;;;;476533;249;27870;-70
2022/01/04 06:43:08;;;;;;;5.40;5.03;;;9.40;99.90;;;;;;476535;249;27979;-69
2022/01/04 06:45:09;;;;;;;4.50;4.20;;;9.40;99.90;;;;;;476549;249;27909;-70
2022/01/04 06:47:10;;;;;;;3.07;2.87;;;9.40;99.90;;;;;;476538;249;28015;-70
2022/01/04 06:49:12;;;;;;;2.03;1.93;;;9.40;99.90;;;;;;476544;249;27805;-70
2022/01/04 06:51:13;;;;;;;2.50;2.30;;;9.40;99.90;;;;;;476528;249;28086;-70
2022/01/04 06:53:14;;;;;;;1.90;1.80;;;9.40;99.90;;;;;;476512;249;27682;-70
2022/01/04 06:55:15;;;;;;;1.90;1.80;;;9.40;99.90;;;;;;476545;249;27797;-70
2022/01/04 06:57:16;;;;;;;1.60;1.50;;;9.40;99.90;;;;;;476529;249;27973;-70
2022/01/04 06:59:18;;;;;;;1.43;1.40;;;9.40;99.90;;;;;;476551;249;27913;-70
2022/01/04 07:01:19;;;;;;;2.10;1.70;;;9.40;99.90;;;;;;476521;249;27977;-69
2022/01/04 07:03:20;;;;;;;2.10;1.53;;;9.40;99.90;;;;;;476534;249;28374;-70
2022/01/04 07:05:21;;;;;;;1.73;1.63;;;9.40;99.90;;;;;;476548;247;28462;-70
2022/01/04 07:07:24;;;;;;;1.30;1.20;;;9.40;99.90;;;;;;476520;249;28324;-70
2022/01/04 07:09:24;;;;;;;2.07;1.50;;;9.40;99.90;;;;;;476509;249;28553;-69
2022/01/04 07:11:25;;;;;;;1.50;1.40;;;9.40;99.90;;;;;;476540;249;28349;-70
2022/01/04 07:13:26;;;;;;;4.00;1.70;;;9.40;99.90;;;;;;476564;249;28437;-70
2022/01/04 07:15:28;;;;;;;1.63;1.53;;;9.40;99.90;;;;;;476579;249;27921;-70
2022/01/04 07:17:29;;;;;;;1.60;1.50;;;9.40;99.90;;;;;;476533;249;27964;-70
2022/01/04 07:19:30;;;;;;;1.50;1.40;;;9.40;99.90;;;;;;476551;249;28001;-70
2022/01/04 07:21:31;;;;;;;1.60;1.50;;;9.40;99.90;;;;;;476528;249;27607;-70
2022/01/04 07:23:33;;;;;;;1.70;1.60;;;9.40;99.90;;;;;;476534;249;27966;-70
2022/01/04 07:25:34;;;;;;;1.90;1.67;;;9.50;99.90;;;;;;476532;249;27855;-70
2022/01/04 07:27:35;;;;;;;1.40;1.30;;;9.50;99.90;;;;;;476529;249;27764;-70
2022/01/04 07:29:36;;;;;;;2.00;1.80;;;9.50;99.90;;;;;;476555;249;27869;-70
2022/01/04 07:31:38;;;;;;;1.70;1.60;;;9.50;99.90;;;;;;476535;249;27815;-70
2022/01/04 07:33:39;;;;;;;1.70;1.60;;;9.50;99.90;;;;;;476563;249;27982;-70
2022/01/04 07:35:40;;;;;;;1.70;1.60;;;9.50;99.90;;;;;;476563;249;27934;-70
2022/01/04 07:37:41;;;;;;;1.80;1.30;;;9.50;99.90;;;;;;476535;249;27526;-70
2022/01/04 07:39:43;;;;;;;1.50;1.40;;;9.50;99.90;;;;;;476556;249;27978;-70
2022/01/04 07:41:44;;;;;;;1.50;1.40;;;9.50;99.90;;;;;;476532;249;27842;-70
2022/01/04 07:43:45;;;;;;;1.67;1.57;;;9.50;99.90;;;;;;476538;249;28358;-70
2022/01/04 07:45:46;;;;;;;1.87;1.67;;;9.50;99.90;;;;;;476548;249;28423;-70
2022/01/04 07:47:48;;;;;;;1.60;1.50;;;9.50;99.90;;;;;;476542;249;28360;-70
2022/01/04 07:49:49;;;;;;;1.73;1.63;;;9.50;99.90;;;;;;476547;249;28322;-70
2022/01/04 07:51:50;;;;;;;1.30;1.20;;;9.50;99.90;;;;;;476539;249;28252;-70
2022/01/04 07:53:52;;;;;;;1.67;1.57;;;9.50;99.90;;;;;;476522;249;27922;-70
2022/01/04 07:55:53;;;;;;;1.50;1.40;;;9.50;99.90;;;;;;476546;249;27900;-70
2022/01/04 07:57:54;;;;;;;1.60;1.50;;;9.50;99.90;;;;;;476527;249;27714;-70
2022/01/04 07:59:55;;;;;;;1.50;1.40;;;9.50;99.90;;;;;;476521;249;27913;-70
2022/01/04 08:01:57;;;;;;;2.23;1.40;;;9.50;99.90;;;;;;476521;249;27928;-70
2022/01/04 08:03:59;;;;;;;1.40;1.30;;;9.60;99.90;;;;;;476526;249;27907;-70
2022/01/04 08:05:59;;;;;;;1.47;1.37;;;9.50;99.90;;;;;;476498;249;28005;-70
2022/01/04 08:08:00;;;;;;;1.80;1.70;;;9.60;99.90;;;;;;476524;249;28124;-70
2022/01/04 08:10:01;;;;;;;2.53;1.50;;;9.60;99.90;;;;;;476518;249;27829;-70
2022/01/04 08:12:04;;;;;;;1.40;1.30;;;9.60;99.90;;;;;;476515;249;27503;-70
2022/01/04 08:14:04;;;;;;;1.50;1.40;;;9.60;99.90;;;;;;476501;249;28002;-70
2022/01/04 08:16:05;;;;;;;1.53;1.43;;;9.60;99.90;;;;;;476547;249;28093;-70
2022/01/04 08:18:06;;;;;;;4.27;1.60;;;9.60;99.90;;;;;;476517;249;27934;-70
2022/01/04 08:20:08;;;;;;;1.63;1.53;;;9.60;99.90;;;;;;476528;249;27553;-70
2022/01/04 08:22:09;;;;;;;1.50;1.40;;;9.60;99.90;;;;;;476531;249;28328;-70
2022/01/04 08:24:10;;;;;;;1.60;1.50;;;9.60;99.90;;;;;;476527;249;28733;-70
2022/01/04 08:26:11;;;;;;;1.47;1.37;;;9.60;99.90;;;;;;476544;249;28374;-70
2022/01/04 08:28:13;;;;;;;1.30;1.30;;;9.60;99.90;;;;;;476522;249;28022;-70
2022/01/04 08:30:14;;;;;;;1.53;1.30;;;9.60;99.90;;;;;;476566;249;28482;-70
2022/01/04 08:32:16;;;;;;;1.20;1.10;;;9.60;99.90;;;;;;476539;249;27978;-70
2022/01/04 08:34:16;;;;;;;1.30;1.30;;;9.60;99.90;;;;;;476590;249;27853;-70
2022/01/04 08:36:18;;;;;;;1.40;1.37;;;9.60;99.90;;;;;;476553;249;27814;-70
2022/01/04 08:38:19;;;;;;;1.77;1.60;;;9.60;99.90;;;;;;476554;249;27721;-70
2022/01/04 08:40:20;;;;;;;1.70;1.60;;;9.60;99.90;;;;;;476543;249;27899;-70
2022/01/04 08:42:24;;;;;;;2.80;1.60;;;9.70;99.90;;;;;;476542;249;27864;-70
2022/01/04 08:44:25;;;;;;;1.47;1.30;;;9.70;99.90;;;;;;476541;249;27766;-70
2022/01/04 08:46:26;;;;;;;1.50;1.40;;;9.70;99.90;;;;;;476533;249;28392;-70
2022/01/04 08:48:28;;;;;;;1.70;1.60;;;9.70;99.90;;;;;;476546;249;28427;-70
2022/01/04 08:50:29;;;;;;;1.40;1.30;;;9.70;99.90;;;;;;476533;249;28457;-70
2022/01/04 08:52:30;;;;;;;1.53;1.43;;;9.70;99.90;;;;;;476555;249;28230;-70
2022/01/04 08:54:31;;;;;;;2.10;1.83;;;9.70;99.90;;;;;;476549;249;28343;-70
2022/01/04 08:56:33;;;;;;;1.60;1.50;;;9.70;99.90;;;;;;476536;249;27881;-70
2022/01/04 08:58:34;;;;;;;2.00;1.80;;;9.70;99.90;;;;;;476541;249;27802;-70
2022/01/04 09:00:36;;;;;;;1.93;1.83;;;9.70;99.90;;;;;;476540;249;27954;-70
2022/01/04 09:02:36;;;;;;;1.73;1.63;;;9.70;99.90;;;;;;476505;249;27951;-70
2022/01/04 09:04:38;;;;;;;1.80;1.70;;;9.70;99.90;;;;;;476539;249;27867;-70
2022/01/04 09:06:39;;;;;;;1.90;1.80;;;9.70;99.90;;;;;;476554;249;27476;-70
2022/01/04 09:08:40;;;;;;;2.70;1.60;;;9.70;99.90;;;;;;476562;249;27995;-70
2022/01/04 09:10:41;;;;;;;2.00;1.90;;;9.70;99.90;;;;;;476550;249;27924;-70
2022/01/04 09:13:04;;;;;;;2.10;1.90;;;9.70;99.90;;;;;;476538;249;28076;-70
2022/01/04 09:15:05;;;;;;;1.70;1.60;;;9.70;99.90;;;;;;476242;249;28041;-70
2022/01/04 09:19:20;;;;;;;2.23;2.13;;;9.80;99.90;;;;;;476527;249;27955;-70
2022/01/04 09:21:21;;;;;;;2.03;1.60;;;9.80;99.90;;;;;;476568;249;27997;-70
2022/01/04 09:23:22;;;;;;;1.87;1.77;;;9.80;99.90;;;;;;476545;249;27475;-70
2022/01/04 09:25:23;;;;;;;2.57;1.80;;;9.80;99.90;;;;;;476551;249;27758;-70
2022/01/04 09:27:25;;;;;;;2.10;1.87;;;9.80;99.90;;;;;;476553;249;27879;-70
2022/01/04 09:29:26;;;;;;;1.90;1.80;;;9.80;99.90;;;;;;476544;249;27966;-70
2022/01/04 09:31:28;;;;;;;2.07;1.77;;;9.80;99.90;;;;;;476559;249;27724;-70
2022/01/04 09:33:28;;;;;;;2.60;1.90;;;9.80;99.90;;;;;;476534;249;28029;-70
2022/01/04 09:35:30;;;;;;;2.40;2.10;;;9.80;99.90;;;;;;476554;249;27734;-70
2022/01/04 09:37:31;;;;;;;2.40;2.03;;;9.80;99.90;;;;;;476561;249;27795;-70
2022/01/04 09:39:32;;;;;;;2.27;2.00;;;9.80;99.90;;;;;;476528;249;27878;-70
2022/01/04 09:41:33;;;;;;;3.37;2.20;;;9.80;99.90;;;;;;476525;249;28124;-70
2022/01/04 09:43:35;;;;;;;3.50;2.03;;;9.80;99.90;;;;;;476565;249;27783;-70
2022/01/04 09:45:36;;;;;;;1.83;1.73;;;9.80;99.90;;;;;;476550;249;28047;-70
2022/01/04 09:47:37;;;;;;;1.87;1.77;;;9.80;99.90;;;;;;476541;249;28241;-70
2022/01/04 09:49:38;;;;;;;3.63;2.07;;;9.80;99.90;;;;;;476526;249;28384;-70
2022/01/04 09:51:40;;;;;;;2.93;1.90;;;9.90;99.90;;;;;;476536;249;28477;-70
2022/01/04 09:53:41;;;;;;;2.60;2.13;;;9.90;99.90;;;;;;476557;249;28401;-70
2022/01/04 09:55:42;;;;;;;2.37;2.00;;;9.90;99.90;;;;;;476553;249;28323;-70
2022/01/04 09:57:43;;;;;;;1.90;1.70;;;9.90;99.90;;;;;;476563;249;27944;-70
2022/01/04 09:59:45;;;;;;;2.50;1.90;;;9.90;99.90;;;;;;476545;249;27961;-70
2022/01/04 10:01:51;;;;;;;3.47;2.00;;;9.90;99.90;;;;;;476556;249;27887;-70
2022/01/04 10:03:47;;;;;;;3.60;1.80;;;9.90;99.90;;;;;;476373;249;27902;-70
2022/01/04 10:05:48;;;;;;;1.80;1.70;;;9.90;99.90;;;;;;476408;249;28028;-70
2022/01/04 10:07:50;;;;;;;2.20;2.00;;;9.90;99.90;;;;;;476547;249;27764;-70
2022/01/04 10:09:52;;;;;;;2.30;1.80;;;9.90;99.90;;;;;;476542;249;28119;-70
2022/01/04 10:11:53;;;;;;;2.00;1.80;;;9.90;99.90;;;;;;476495;249;27871;-70
2022/01/04 10:13:53;;;;;;;2.50;1.90;;;9.90;99.90;;;;;;476517;249;28007;-70
2022/01/04 10:15:55;;;;;;;2.10;1.90;;;10.00;99.90;;;;;;476554;249;27710;-70
2022/01/04 10:17:56;;;;;;;3.83;1.50;;;10.00;99.90;;;;;;476535;249;27913;-70
2022/01/04 10:19:57;;;;;;;1.83;1.73;;;9.90;99.90;;;;;;476539;249;27890;-70
2022/01/04 10:21:58;;;;;;;1.73;1.63;;;10.00;99.90;;;;;;476521;249;27880;-70
2022/01/04 10:24:00;;;;;;;1.80;1.70;;;10.00;99.90;;;;;;476549;249;28540;-70
2022/01/04 10:26:01;;;;;;;2.13;1.60;;;10.00;99.90;;;;;;476550;249;28133;-70
2022/01/04 10:28:02;;;;;;;5.60;1.80;;;9.90;99.90;;;;;;476541;249;28362;-70
2022/01/04 10:30:03;;;;;;;1.73;1.63;;;9.90;99.90;;;;;;476541;249;27964;-70
2022/01/04 10:32:05;;;;;;;1.97;1.77;;;9.90;99.90;;;;;;476517;249;27783;-70
2022/01/04 10:34:06;;;;;;;5.23;2.07;;;9.90;99.90;;;;;;476549;249;28120;-70
2022/01/04 10:36:13;;;;;;;1.87;1.70;;;10.00;99.90;;;;;;476541;249;27891;-70
2022/01/04 10:38:14;;;;;;;1.80;1.70;;;10.00;99.90;;;;;;476535;249;27761;-70
2022/01/04 10:40:16;;;;;;;2.43;1.77;;;9.90;99.90;;;;;;476546;249;27970;-70
2022/01/04 10:42:17;;;;;;;2.00;1.60;;;9.90;99.90;;;;;;476530;249;27770;-70
2022/01/04 10:44:18;;;;;;;1.90;1.80;;;9.90;99.90;;;;;;476541;249;27604;-70
2022/01/04 10:46:20;;;;;;;1.93;1.73;;;9.90;99.90;;;;;;476542;249;27760;-70